Salina, KS

5:07 AM CST on February 01, 2015 (GMT -0600)
Blosser Municipal | Change Station
CLOSE
Current Station
Airport
Location: Concordia,
Elevation: 1483 ft
Nearby Weather Stations
Active Advisory: Wind Advisory

Elev 1483 ft 39.55 °N, 97.65 °W | Updated 4 minutes ago

Snow
Snow
28 °F
Feels Like 13 °F
N
25
Wind Variable Wind from NNW
Gusts 36 mph

Today
High -- | Low -- °F
--% Chance of Precip.
Yesterday
High -- | Low -- °F
Precip. -- in
7:36 AM 5:51 PM
Waxing Gibbous, 94% visible
Pressure 29.83 in
Visibility 1.0 miles
Clouds Mostly Cloudy 900 ft
Overcast 1400 ft
Windchill 13 °F
Dew Point 27 °F
Humidity 96%
Rainfall 0.04 in
Snow Depth Not available.
UV 0 out of 12
Pollen .10 out of 12
Air Quality Not available.
Flu Activity Not available.
SPECI KCNK 011103Z AUTO 33022G31KT 1SM -SN BR BKN009 OVC014 M02/M03 A2983 RMK AO2 PK WND 33029/1059 P0000 T10221028

More Conditions Fewer Conditions

Pressure 29.83 in
Visibility 1.0 miles
Clouds Mostly Cloudy 900 ft
Overcast 1400 ft
Windchill 13 °F
Dew Point 27 °F
Humidity 96%
Rainfall 0.04 in
Snow Depth Not available.
UV 0 out of 12
Pollen .10 out of 12
Air Quality Not available.
Flu Activity Not available.
SPECI KCNK 011103Z AUTO 33022G31KT 1SM -SN BR BKN009 OVC014 M02/M03 A2983 RMK AO2 PK WND 33029/1059 P0000 T10221028

More Conditions Fewer Conditions

10-Day Weather Forecast

Almanac

Astronomy

Feb. 01, 2015 Rise Set
Actual Time
Civil Twilight
Nautical Twilight
Astronomical Twilight
Moon
Length of Visible Light
Length of Day
Tomorrow will be .
, % of the Moon is Illuminated

Today's Extremes

State Highs State Lows

Community

WunderPhotos

Upload Photos

1,792,345 photos uploaded!

WunderBlogs® & News

Nearby

Air Quality

  Air Quality AQ Index Pollutant
Not available.

Snow Depth

Station Depth Elevation

Earthquake Activity

City Distance Mag. Time & Date
Minimum magnitude displayed is 2.5.

Coastal Water Temperatures

Place Temperature

Nearby Weather Stations